Terminal Aerodrome Forecast
Issued by NWS

Home | Current Version | Previous Version | Text Only | Print | Product List | Glossary On
Versions: 1 2 3 4 5 6 7 8 9 10 11 12
000
FTUS42 KMLB 301725
TAFLEE
TAF
KLEE 301725Z 3018/3118 17009KT 6SM -RA VCTS BKN030CB OVC100
      TEMPO 3019/3023 2SM TSRA BKN020CB OVC050
     FM310100 14006KT P6SM VCSH SCT020 BKN050 OVC250
     FM310600 16005KT P6SM VCSH SCT020 BKN080 OVC250
     FM311300 20007KT P6SM SCT020 BKN100 OVC250
      TEMPO 3116/3118 2SM TSRA BKN020CB=

USA.gov is the U.S. government's official web portal to all federal, state and local government web resources and services.